Terminal Aerodrome Forecast
Issued by NWS Riverton, WY

Home | Current Version | Previous Version | Text Only | Print | Product List | Glossary On
Versions: 1 2 3 4 5 6 7 8 9 10 11 12 13
599
FTUS45 KRIW 271720
TAFRIW
TAF
KRIW 271720Z 2718/2818 24010KT P6SM BKN080
     FM272100 VRB06KT P6SM SCT060 BKN150
     FM280400 24011KT P6SM SCT150 WS005/28025KT=

USA.gov is the U.S. government's official web portal to all federal, state and local government web resources and services.